This is the latest recevied weather packets stored in our database for station/object WR9A-13. If no packets are shown the sender has not sent any weather packets the latest 10 day(s).
| Time | Temp. | Humidity | Pressure | Rain* | Wind** | Luminosity | Snow |
|---|---|---|---|---|---|---|---|
| 1788722728 | 27.78° C | 46% | 1018.3 hPa | 0 mm | - | - | - |
| 1788722133 | 27.22° C | 46% | 1018.4 hPa | 0 mm | - | - | - |
| 1788721229 | 27.22° C | 47% | 1018.3 hPa | 0 mm | - | - | - |
| 1788720323 | 27.78° C | 49% | 1018.4 hPa | 0 mm | - | - | - |
| 1788720021 | 27.22° C | 47% | 1018.3 hPa | 0 mm | - | - | - |
| 1788719730 | 27.22° C | 48% | 1018.4 hPa | 0 mm | - | - | - |
| 1788718215 | 27.22° C | 50% | 1018.4 hPa | 0 mm | - | - | - |
| 1788717021 | 27.78° C | 51% | 1018.7 hPa | 0 mm | - | - | - |
| 1788715831 | 26.67° C | 54% | 1018.8 hPa | 0 mm | - | - | - |
| 1788715528 | 27.22° C | 51% | 1018.9 hPa | 0 mm | - | - | - |
| 1788714932 | 26.67° C | 54% | 1019 hPa | 0 mm | - | - | - |
| 1788712837 | 26.67° C | 57% | 1019.1 hPa | 0 mm | - | - | - |
| 1788712526 | 26.11° C | 59% | 1019.2 hPa | 0 mm | - | - | - |
| 1788711036 | 25.56° C | 63% | 1019.2 hPa | 0 mm | - | - | - |
| 1788710725 | 25.56° C | 62% | 1019.4 hPa | 0 mm | - | - | - |
| 1788707728 | 24.44° C | 64% | 1019.3 hPa | 0 mm | - | - | - |
| 1788707142 | 23.89° C | 66% | 1019.2 hPa | 0 mm | - | - | - |
| 1788706825 | 23.89° C | 67% | 1019.1 hPa | 0 mm | - | - | - |
| 1788705929 | 23.89° C | 66% | 1019.1 hPa | 0 mm | - | - | - |
| 1788704721 | 23.33° C | 69% | 1019.3 hPa | 0 mm | - | - | - |
| 1788703533 | 22.22° C | 76% | 1019.3 hPa | 0 mm | - | - | - |
| 1788702932 | 21.67° C | 79% | 1019.3 hPa | 0 mm | - | - | - |
| 1788702620 | 21.67° C | 80% | 1019.2 hPa | 0 mm | - | - | - |
| 1788701437 | 21.11° C | 82% | 1019.2 hPa | 0 mm | - | - | - |
| 1788701125 | 21.11° C | 82% | 1019.2 hPa | 0 mm | - | - | - |
* Rain latest hour (hover to see other rain measurements)
** Current wind speed in m/s (hover to see current wind gust speed)